createdAt,value
2017-11-17T00:00:57.216Z,85.58
2017-11-17T00:03:54.961Z,86.96
2017-11-17T00:19:45.812Z,85.87
2017-11-17T00:22:34.704Z,86.05
2017-11-17T00:25:32.737Z,85.78
2017-11-17T00:41:22.536Z,84.91
2017-11-17T00:44:12.236Z,84.72
2017-11-17T00:47:09.927Z,84.38
2017-11-17T00:50:06.867Z,83.57
2017-11-17T00:53:03.884Z,83.55
2017-11-17T00:56:00.919Z,83.43
2017-11-17T00:58:57.947Z,84.00
2017-11-17T01:01:55.916Z,83.79
2017-11-17T01:04:21.722Z,84.17
2017-11-17T01:23:57.652Z,83.46
2017-11-17T01:26:23.433Z,83.18
2017-11-17T01:29:13.100Z,83.33
2017-11-17T01:32:10.917Z,83.32
2017-11-17T01:35:08.043Z,84.39
2017-11-17T01:47:55.807Z,84.21
2017-11-17T01:50:45.653Z,84.17
2017-11-17T01:53:43.065Z,84.88
2017-11-17T01:56:40.684Z,85.92
2017-11-17T01:59:38.165Z,86.53
2017-11-17T02:02:41.636Z,87.08
2017-11-17T02:05:38.785Z,87.60
2017-11-17T02:11:25.656Z,87.60
2017-11-17T02:14:14.852Z,87.36
2017-11-17T02:17:11.606Z,87.06
2017-11-17T02:20:09.334Z,86.79
2017-11-17T02:23:07.182Z,86.27
2017-11-17T02:26:04.843Z,86.71
2017-11-17T02:29:02.609Z,86.12
2017-11-17T02:32:00.164Z,86.69
2017-11-17T02:34:25.974Z,86.91
2017-11-17T02:54:00.296Z,87.39
2017-11-17T02:56:26.122Z,87.31
2017-11-17T02:59:15.616Z,87.21
2017-11-17T03:18:28.026Z,86.13
2017-11-17T03:21:17.089Z,86.28
2017-11-17T03:24:14.213Z,85.92
2017-11-17T03:27:11.351Z,85.52
2017-11-17T03:30:09.086Z,85.09
2017-11-17T03:33:06.033Z,84.53
2017-11-17T03:42:14.676Z,84.07
2017-11-17T03:45:04.414Z,83.80
2017-11-17T03:48:02.106Z,83.60
2017-11-17T04:07:08.493Z,84.44
2017-11-17T04:10:06.463Z,84.88
2017-11-17T04:13:03.556Z,85.25
2017-11-17T04:16:01.104Z,86.30
2017-11-17T04:18:58.314Z,86.45
2017-11-17T04:28:06.852Z,87.43
2017-11-17T04:30:56.680Z,88.13
2017-11-17T04:50:08.188Z,87.30
2017-11-17T05:09:43.036Z,88.67
2017-11-17T05:12:08.840Z,88.19
2017-11-17T05:14:58.219Z,87.68
2017-11-17T05:17:56.277Z,87.93
2017-11-17T05:33:46.137Z,86.75
2017-11-17T05:36:35.699Z,86.14
2017-11-17T05:39:32.925Z,86.04
2017-11-17T05:42:29.892Z,86.82
2017-11-17T05:45:26.923Z,86.99
2017-11-17T05:48:23.966Z,86.44
2017-11-17T05:51:21.069Z,86.24
2017-11-17T05:54:18.863Z,86.20
2017-11-17T06:13:28.749Z,85.79
2017-11-17T06:16:26.620Z,85.52
2017-11-17T06:18:52.409Z,85.37
2017-11-17T06:21:41.826Z,85.75
2017-11-17T06:24:39.868Z,86.17
2017-11-17T06:27:37.736Z,86.03
2017-11-17T06:40:22.559Z,86.40
2017-11-17T06:43:11.520Z,86.39
2017-11-17T06:46:08.716Z,86.42
2017-11-17T06:49:05.569Z,86.76
2017-11-17T06:52:02.540Z,86.48
2017-11-17T06:54:59.460Z,86.15
2017-11-17T06:57:56.377Z,85.72
2017-11-17T07:00:53.124Z,85.25
2017-11-17T07:03:18.917Z,85.36
2017-11-17T07:06:08.450Z,85.67
2017-11-17T07:09:05.471Z,85.86
2017-11-17T07:12:03.303Z,85.79
2017-11-17T07:24:45.561Z,85.92
2017-11-17T07:27:35.052Z,85.92
2017-11-17T07:30:32.803Z,85.83
2017-11-17T07:33:30.658Z,85.79
2017-11-17T07:36:27.597Z,85.63
2017-11-17T07:39:24.541Z,85.32
2017-11-17T07:42:22.383Z,85.59
2017-11-17T07:48:09.884Z,85.99
2017-11-17T07:50:59.277Z,86.33
2017-11-17T07:53:56.683Z,86.21
2017-11-17T07:56:53.960Z,86.69
2017-11-17T07:59:51.801Z,87.84
2017-11-17T08:02:48.735Z,89.27
2017-11-17T08:05:45.679Z,89.66
2017-11-17T08:08:42.724Z,90.05
2017-11-17T08:11:08.525Z,90.25
2017-11-17T08:30:43.552Z,89.36
2017-11-17T08:33:09.348Z,89.16
2017-11-17T08:35:58.640Z,89.29
2017-11-17T08:55:10.917Z,90.49
2017-11-17T08:57:59.816Z,91.01
2017-11-17T09:00:56.740Z,90.79
2017-11-17T09:03:53.818Z,89.98
2017-11-17T09:06:51.643Z,89.61
2017-11-17T09:09:48.820Z,89.54
2017-11-17T09:18:57.135Z,90.27
2017-11-17T09:21:46.796Z,90.03
2017-11-17T09:24:43.737Z,89.58
2017-11-17T09:27:41.071Z,89.53
2017-11-17T09:30:38.940Z,88.95
2017-11-17T09:33:36.988Z,88.46
2017-11-17T09:36:34.848Z,88.30
2017-11-17T09:42:22.509Z,87.60
2017-11-17T09:45:11.343Z,87.29
2017-11-17T09:48:09.091Z,87.05
2017-11-17T10:03:58.820Z,87.41
2017-11-17T10:06:47.881Z,87.57
2017-11-17T10:09:45.115Z,87.82
2017-11-17T10:12:42.138Z,87.85
2017-11-17T10:15:39.396Z,87.97
2017-11-17T10:18:36.467Z,87.74
2017-11-17T10:21:33.589Z,87.31
2017-11-17T10:24:30.476Z,86.91
2017-11-17T10:26:56.260Z,86.68
2017-11-17T10:29:45.213Z,86.17
2017-11-17T10:32:42.332Z,86.53
2017-11-17T10:35:39.132Z,87.20
2017-11-17T10:38:36.102Z,86.98
2017-11-17T10:41:32.995Z,86.18
2017-11-17T10:50:41.272Z,88.47
2017-11-17T11:10:15.804Z,86.91
2017-11-17T11:12:41.604Z,86.35
2017-11-17T11:15:31.408Z,87.14
2017-11-17T11:18:29.207Z,86.72
2017-11-17T11:21:26.908Z,87.21
2017-11-17T11:24:24.788Z,87.31
2017-11-17T11:27:22.121Z,87.24
2017-11-17T11:36:29.836Z,85.63
2017-11-17T11:56:05.642Z,87.52
2017-11-17T11:58:31.437Z,87.64
2017-11-17T12:01:20.813Z,87.36
2017-11-17T12:04:18.652Z,88.32
2017-11-17T12:23:26.426Z,89.82
2017-11-17T12:42:38.112Z,88.56
2017-11-17T12:45:27.180Z,88.53
2017-11-17T12:48:24.192Z,87.79
2017-11-17T12:51:21.536Z,87.89
2017-11-17T12:54:19.173Z,87.20
2017-11-17T13:04:08.933Z,86.83
2017-11-17T13:06:58.764Z,86.17
2017-11-17T13:29:24.306Z,85.23
2017-11-17T13:32:22.168Z,84.97
2017-11-17T13:35:20.119Z,85.26
2017-11-17T13:38:17.217Z,85.15
2017-11-17T13:41:14.176Z,84.59
2017-11-17T13:44:12.122Z,84.57
2017-11-17T13:47:09.140Z,84.71
2017-11-17T14:06:21.357Z,86.83
2017-11-17T14:09:18.367Z,87.01
2017-11-17T14:11:44.128Z,86.90
2017-11-17T14:14:33.788Z,87.23
2017-11-17T14:33:45.230Z,88.51
2017-11-17T14:36:34.898Z,88.25
2017-11-17T14:55:47.075Z,87.15
2017-11-17T15:15:22.972Z,86.48
2017-11-17T15:34:33.624Z,89.78
2017-11-17T15:53:44.986Z,88.04
2017-11-17T15:56:42.908Z,87.97
2017-11-17T15:59:41.007Z,87.64
2017-11-17T16:02:14.892Z,87.65
2017-11-17T16:05:04.781Z,87.51
2017-11-17T16:08:02.292Z,87.30
2017-11-17T16:10:59.683Z,86.92
2017-11-17T16:13:57.232Z,87.01
2017-11-17T16:16:54.774Z,86.85
2017-11-17T16:19:51.928Z,86.89
2017-11-17T16:25:38.872Z,86.27
2017-11-17T16:28:27.897Z,86.74
2017-11-17T16:31:25.740Z,86.87
2017-11-17T16:34:23.087Z,86.92
2017-11-17T16:47:06.689Z,87.05
2017-11-17T17:06:47.921Z,87.01
2017-11-17T17:09:13.713Z,87.26
2017-11-17T17:12:03.111Z,87.18
2017-11-17T17:15:00.147Z,87.20
2017-11-17T17:17:58.104Z,87.06
2017-11-17T17:20:55.145Z,86.62
2017-11-17T17:30:47.328Z,86.82
2017-11-17T17:50:23.756Z,87.37
2017-11-17T17:52:49.524Z,87.32
2017-11-17T17:55:39.161Z,87.41
2017-11-17T18:14:51.972Z,87.45
2017-11-17T18:17:41.867Z,88.26
2017-11-17T18:20:39.780Z,89.03
2017-11-17T18:23:36.951Z,89.48
2017-11-17T18:26:34.737Z,89.55
2017-11-17T18:29:31.893Z,89.13
2017-11-17T18:48:50.519Z,88.07
2017-11-17T19:01:34.494Z,88.25
2017-11-17T19:04:24.177Z,88.15
2017-11-17T19:23:36.818Z,88.94
2017-11-17T19:26:26.885Z,89.42
2017-11-17T19:29:24.823Z,90.64
2017-11-17T19:45:16.027Z,91.61
2017-11-17T19:48:05.344Z,92.50
2017-11-17T20:07:18.512Z,93.16
2017-11-17T20:10:07.965Z,93.07
2017-11-17T20:13:05.081Z,92.71
2017-11-17T20:16:02.860Z,92.15
2017-11-17T20:19:00.685Z,91.60
2017-11-17T20:21:58.560Z,90.60
2017-11-17T20:31:07.296Z,90.49
2017-11-17T20:33:57.101Z,90.11
2017-11-17T20:36:54.894Z,89.61
2017-11-17T20:39:52.859Z,89.35
2017-11-17T20:42:50.686Z,88.77
2017-11-17T20:45:48.653Z,89.15
2017-11-17T20:48:45.889Z,89.48
2017-11-17T20:51:43.672Z,89.40
2017-11-17T21:11:01.637Z,90.12
2017-11-17T21:13:58.658Z,90.04
2017-11-17T21:16:24.422Z,90.27
2017-11-17T21:19:13.481Z,90.26
2017-11-17T21:22:10.617Z,90.41
2017-11-17T21:25:08.492Z,90.47
2017-11-17T21:38:27.658Z,91.40
2017-11-17T21:40:53.489Z,91.60
2017-11-17T21:43:19.287Z,91.50
2017-11-17T21:45:45.065Z,91.38
2017-11-17T21:48:10.844Z,90.99
2017-11-17T21:50:36.628Z,90.86
2017-11-17T21:53:02.416Z,90.85
2017-11-17T21:55:28.195Z,90.96
2017-11-17T21:57:53.969Z,91.00
2017-11-17T22:00:19.740Z,90.59
2017-11-17T22:02:45.516Z,90.43
2017-11-17T22:05:11.277Z,90.75
2017-11-17T22:07:37.053Z,90.73
2017-11-17T22:10:02.851Z,90.56
2017-11-17T22:12:28.600Z,90.44
2017-11-17T22:14:54.375Z,90.55
2017-11-17T22:17:20.156Z,90.62
2017-11-17T22:19:45.933Z,90.32
2017-11-17T22:22:11.709Z,90.10
2017-11-17T22:24:37.482Z,90.09
2017-11-17T22:27:03.247Z,89.75
2017-11-17T22:29:29.023Z,89.72
2017-11-17T22:31:54.802Z,89.57
2017-11-17T22:34:20.539Z,89.44
2017-11-17T22:36:46.300Z,89.33
2017-11-17T22:39:12.068Z,89.43
2017-11-17T22:41:37.832Z,89.66
2017-11-17T22:44:03.609Z,90.12
2017-11-17T22:46:29.347Z,90.15
2017-11-17T22:48:55.118Z,90.43
2017-11-17T22:51:20.895Z,90.57
2017-11-17T22:53:46.632Z,91.07
2017-11-17T22:56:12.405Z,91.12
2017-11-17T22:58:38.178Z,90.80
2017-11-17T23:01:03.921Z,91.13
2017-11-17T23:03:29.684Z,91.78
2017-11-17T23:05:55.441Z,92.73
2017-11-17T23:08:21.192Z,93.29
2017-11-17T23:10:46.960Z,93.24
2017-11-17T23:13:12.700Z,92.89
2017-11-17T23:15:38.455Z,92.15
2017-11-17T23:18:04.217Z,91.49
2017-11-17T23:20:29.972Z,90.77
2017-11-17T23:22:55.757Z,90.90
2017-11-17T23:25:21.504Z,90.67
2017-11-17T23:27:47.254Z,89.97
2017-11-17T23:30:13.027Z,89.55
2017-11-17T23:32:38.784Z,89.42
2017-11-17T23:35:04.635Z,89.42
2017-11-17T23:37:33.416Z,89.33
2017-11-17T23:39:59.252Z,89.53
2017-11-17T23:42:25.033Z,89.04
2017-11-17T23:44:50.808Z,88.67
2017-11-17T23:47:16.570Z,88.89
2017-11-17T23:49:42.361Z,88.67
2017-11-17T23:52:08.143Z,88.57
2017-11-17T23:54:33.936Z,88.74
2017-11-17T23:56:59.686Z,88.62
2017-11-17T23:59:25.459Z,88.75
